Terminal Aerodrome Forecast
Issued by NWS

Home | Current Version | Previous Version | Text Only | Print | Product List | Glossary On
Versions: 1 2 3 4 5 6 7 8 9 10 11 12 13 14 15 16 17 18
000
FTUS46 KEKA 301120
TAFCEC
TAF
KCEC 301120Z 3012/3112 VRB05KT P6SM OVC100
     FM301800 32008KT P6SM SKC
     FM310000 33010G16KT P6SM SKC
     FM310300 16005KT P6SM SCT250
     FM310900 VRB03KT P6SM OVC250=

USA.gov is the U.S. government's official web portal to all federal, state and local government web resources and services.